Terminal Aerodrome Forecast
Issued by NWS

Home | Current Version | Previous Version | Text Only | Print | Product List | Glossary On
Versions: 1 2 3 4 5 6 7 8 9 10 11 12 13 14
000
FTUS46 KLOX 160500
TAFWJF
TAF
KWJF 160526Z 1606/1706 25012KT P6SM SKC
     FM161300 VRB03KT P6SM SKC
     FM162100 26017G25KT P6SM SKC
     FM170300 26018KT P6SM SKC=

USA.gov is the U.S. government's official web portal to all federal, state and local government web resources and services.